Time;durP1;ratioP1;P1;durP2;ratioP2;P2;SDS_P1;SDS_P2;PMS_P1;PMS_P2;Temp;Humidity;BMP_temperature;BMP_pressure;BME280_temperature;BME280_humidity;BME280_pressure;Samples;Min_cycle;Max_cycle;Signal;HPM_P1;HPM_P2
2022/05/27 00:02:14;;;;;;;16.17;4.63;;;14.00;99.90;;;;;;5043587;28;20037;-71
2022/05/27 00:04:40;;;;;;;7.70;4.13;;;14.00;99.90;;;;;;5043236;28;20037;-72
2022/05/27 00:07:07;;;;;;;10.30;3.90;;;14.00;99.90;;;;;;5043620;28;20032;-73
2022/05/27 00:09:32;;;;;;;10.48;4.15;;;14.00;99.90;;;;;;5043391;28;20029;-77
2022/05/27 00:11:58;;;;;;;14.13;3.92;;;14.00;99.90;;;;;;5042637;28;20045;-75
2022/05/27 00:14:24;;;;;;;10.02;4.85;;;14.10;99.90;;;;;;5042857;28;20041;-76
2022/05/27 00:16:49;;;;;;;8.60;3.83;;;14.00;99.90;;;;;;5024772;28;20362;-73
2022/05/27 00:19:16;;;;;;;12.32;4.22;;;14.10;99.90;;;;;;5025451;28;20022;-73
2022/05/27 00:21:42;;;;;;;9.25;4.18;;;14.00;99.90;;;;;;5043179;28;20033;-75
2022/05/27 00:24:08;;;;;;;9.57;3.95;;;14.00;99.90;;;;;;5024795;28;20120;-75
2022/05/27 00:26:34;;;;;;;11.95;3.88;;;14.00;99.90;;;;;;5043172;28;20036;-73
2022/05/27 00:28:59;;;;;;;14.00;5.03;;;13.90;99.90;;;;;;5042996;28;20029;-76
2022/05/27 00:31:25;;;;;;;10.55;3.75;;;14.00;99.90;;;;;;5043004;28;20033;-72
2022/05/27 00:33:51;;;;;;;16.58;4.68;;;14.00;99.90;;;;;;5042432;28;20037;-74
2022/05/27 00:36:18;;;;;;;16.83;3.72;;;14.00;99.90;;;;;;5042865;28;20045;-72
2022/05/27 00:38:44;;;;;;;9.52;4.28;;;14.00;99.90;;;;;;5042886;28;20048;-73
2022/05/27 00:41:11;;;;;;;13.23;4.30;;;14.10;99.90;;;;;;5024884;28;20492;-71
2022/05/27 00:43:40;;;;;;;17.95;4.97;;;13.90;99.90;;;;;;5025235;28;20017;-72
2022/05/27 00:46:15;;;;;;;8.45;3.83;;;13.90;99.90;;;;;;5042731;28;20060;-72
2022/05/27 00:48:43;;;;;;;11.10;4.05;;;13.90;99.90;;;;;;5042539;28;20053;-72
2022/05/27 00:51:16;;;;;;;8.57;3.90;;;13.90;99.90;;;;;;5042326;28;20079;-72
2022/05/27 00:53:51;;;;;;;7.75;3.50;;;13.90;99.90;;;;;;5042448;28;20042;-69
2022/05/27 00:56:20;;;;;;;21.38;4.40;;;13.90;99.90;;;;;;5042302;28;20028;-70
2022/05/27 00:58:50;;;;;;;17.25;4.70;;;13.90;99.90;;;;;;5042099;28;20021;-71
2022/05/27 01:01:16;;;;;;;7.53;4.07;;;13.90;99.90;;;;;;5042541;28;20029;-73
2022/05/27 01:03:44;;;;;;;14.65;3.42;;;13.90;99.90;;;;;;5042578;28;20021;-71
2022/05/27 01:06:10;;;;;;;13.00;3.75;;;13.90;99.90;;;;;;5042293;28;20028;-71
2022/05/27 01:08:35;;;;;;;10.73;3.58;;;13.80;99.90;;;;;;5042423;28;20021;-71
2022/05/27 01:11:12;;;;;;;31.58;4.55;;;13.90;99.90;;;;;;5042312;28;20029;-72
2022/05/27 01:14:05;;;;;;;11.82;4.05;;;13.90;99.90;;;;;;5042206;28;20045;-75
2022/05/27 01:16:43;;;;;;;7.10;3.17;;;13.80;99.90;;;;;;5024302;28;20037;-69
2022/05/27 01:22:53;;;;;;;10.75;3.10;;;13.80;99.90;;;;;;5042022;28;20036;-72
2022/05/27 01:25:31;;;;;;;9.18;3.45;;;13.80;99.90;;;;;;5041836;28;20064;-70
2022/05/27 01:27:59;;;;;;;14.60;3.33;;;13.80;99.90;;;;;;5042265;28;20021;-72
2022/05/27 01:30:42;;;;;;;6.00;2.42;;;13.70;99.90;;;;;;5041904;28;20025;-73
2022/05/27 01:33:40;;;;;;;7.43;2.42;;;13.70;99.90;;;;;;5042130;28;20125;-72
2022/05/27 01:36:20;;;;;;;8.02;2.83;;;13.60;99.90;;;;;;5041729;28;20026;-73
2022/05/27 01:39:07;;;;;;;14.27;2.85;;;13.60;99.90;;;;;;5041986;28;20029;-73
2022/05/27 01:41:38;;;;;;;8.60;2.33;;;13.50;99.90;;;;;;5041891;28;20052;-73
2022/05/27 01:44:24;;;;;;;11.63;2.22;;;13.50;99.90;;;;;;5041884;28;20029;-73
2022/05/27 01:46:49;;;;;;;4.63;1.90;;;13.40;99.90;;;;;;5041769;28;20026;-74
2022/05/27 01:49:29;;;;;;;8.75;2.20;;;13.40;99.90;;;;;;5042025;28;20025;-73
2022/05/27 01:52:04;;;;;;;18.38;3.15;;;13.40;99.90;;;;;;5041750;28;20049;-72
2022/05/27 01:55:01;;;;;;;10.85;2.47;;;13.30;99.90;;;;;;5041843;28;20045;-74
2022/05/27 01:57:44;;;;;;;7.07;2.20;;;13.40;99.90;;;;;;5041580;28;20077;-72
2022/05/27 02:00:18;;;;;;;7.65;1.73;;;13.30;99.90;;;;;;5041984;28;20034;-71
2022/05/27 02:02:53;;;;;;;8.00;1.73;;;13.30;99.90;;;;;;5041661;28;20030;-73
2022/05/27 02:05:52;;;;;;;12.93;2.20;;;13.20;99.90;;;;;;5024090;28;20026;-75
2022/05/27 02:08:27;;;;;;;8.35;1.83;;;13.20;99.90;;;;;;5041967;28;20033;-74
2022/05/27 02:11:10;;;;;;;9.45;1.80;;;13.10;99.90;;;;;;5042915;28;20092;-72
2022/05/27 02:13:38;;;;;;;5.22;2.13;;;13.00;99.90;;;;;;5045694;28;20056;-74
2022/05/27 02:16:06;;;;;;;7.72;2.42;;;13.00;99.90;;;;;;5045300;28;20406;-75
2022/05/27 02:18:54;;;;;;;9.05;2.20;;;12.90;99.90;;;;;;5027718;28;20068;-73
2022/05/27 02:21:35;;;;;;;13.68;2.65;;;12.90;99.90;;;;;;5044787;28;20025;-77
2022/05/27 02:24:21;;;;;;;14.88;2.13;;;12.90;99.90;;;;;;5045472;28;20044;-70
2022/05/27 02:26:53;;;;;;;4.88;1.92;;;12.80;99.90;;;;;;5044942;28;20022;-74
2022/05/27 02:29:25;;;;;;;7.47;2.30;;;12.70;99.90;;;;;;5045071;28;20024;-73
2022/05/27 02:31:55;;;;;;;4.57;1.67;;;12.60;99.90;;;;;;5044754;28;20022;-73
2022/05/27 02:35:09;;;;;;;5.68;1.48;;;12.60;99.90;;;;;;5044961;28;20076;-75
2022/05/27 02:37:40;;;;;;;3.20;1.45;;;12.60;99.90;;;;;;5044880;28;20034;-70
2022/05/27 02:40:13;;;;;;;2.42;1.23;;;12.60;99.90;;;;;;5044974;28;20014;-72
2022/05/27 02:42:58;;;;;;;5.18;1.15;;;12.50;99.90;;;;;;5044749;28;20048;-72
2022/05/27 02:45:39;;;;;;;7.90;2.30;;;12.50;99.90;;;;;;5044995;28;20083;-75
2022/05/27 02:48:29;;;;;;;5.65;2.08;;;12.50;99.90;;;;;;5045036;28;20111;-74
2022/05/27 02:51:04;;;;;;;15.20;1.70;;;12.40;99.90;;;;;;5044923;28;20492;-72
2022/05/27 02:53:48;;;;;;;7.28;1.88;;;12.40;99.90;;;;;;5044970;28;20666;-73
2022/05/27 02:56:24;;;;;;;6.03;1.50;;;12.30;99.90;;;;;;5044734;28;20096;-73
2022/05/27 02:58:50;;;;;;;7.20;1.38;;;12.30;99.90;;;;;;5044750;28;20385;-73
2022/05/27 03:01:16;;;;;;;8.05;2.17;;;12.30;99.90;;;;;;5044516;28;20022;-74
2022/05/27 03:03:42;;;;;;;12.63;2.65;;;12.20;99.90;;;;;;5044489;28;20021;-74
2022/05/27 03:06:36;;;;;;;17.20;2.78;;;12.20;99.90;;;;;;5044646;28;20037;-73
2022/05/27 03:09:14;;;;;;;5.00;2.23;;;12.20;99.90;;;;;;5044784;28;20026;-76
2022/05/27 03:11:55;;;;;;;9.18;1.95;;;12.20;99.90;;;;;;5043899;28;20132;-72
2022/05/27 03:14:54;;;;;;;3.75;1.45;;;12.20;99.90;;;;;;5044339;28;20068;-75
2022/05/27 03:17:52;;;;;;;2.60;1.45;;;12.20;99.90;;;;;;5044314;28;20025;-72
2022/05/27 03:20:55;;;;;;;4.75;1.65;;;12.20;99.90;;;;;;5044383;28;20421;-73
2022/05/27 03:23:58;;;;;;;2.95;1.27;;;12.20;99.90;;;;;;5042653;28;20029;-73
2022/05/27 03:26:57;;;;;;;6.18;1.40;;;12.20;99.90;;;;;;5043987;28;20132;-72
2022/05/27 03:29:45;;;;;;;7.53;1.65;;;12.20;99.90;;;;;;5043815;28;20009;-74
2022/05/27 03:32:20;;;;;;;8.63;1.58;;;12.20;99.90;;;;;;5043888;28;20068;-74
2022/05/27 03:34:57;;;;;;;15.68;1.88;;;12.20;99.90;;;;;;5026025;28;20037;-74
2022/05/27 03:37:38;;;;;;;2.58;1.35;;;12.20;99.90;;;;;;5026020;28;20100;-73
2022/05/27 03:40:06;;;;;;;4.38;1.33;;;12.20;99.90;;;;;;5043691;28;20013;-72
2022/05/27 03:42:35;;;;;;;3.15;1.08;;;12.10;99.90;;;;;;5043735;28;20030;-73
2022/05/27 03:45:15;;;;;;;12.10;1.52;;;12.10;99.90;;;;;;5043946;28;20367;-73
2022/05/27 03:47:42;;;;;;;10.75;1.52;;;12.10;99.90;;;;;;5043620;28;20048;-74
2022/05/27 03:50:12;;;;;;;11.35;1.77;;;12.10;99.90;;;;;;5043413;28;20207;-73
2022/05/27 03:52:41;;;;;;;17.23;2.40;;;12.10;99.90;;;;;;5043513;28;20060;-72
2022/05/27 03:55:09;;;;;;;5.20;1.38;;;12.20;99.90;;;;;;5043697;28;20024;-74
2022/05/27 03:57:35;;;;;;;10.15;1.77;;;12.10;99.90;;;;;;5043658;28;20025;-74
2022/05/27 04:00:04;;;;;;;3.55;1.30;;;12.10;99.90;;;;;;5044071;28;20021;-75
2022/05/27 04:02:30;;;;;;;9.18;1.95;;;12.10;99.90;;;;;;5042961;28;20031;-74
2022/05/27 04:04:56;;;;;;;5.03;1.55;;;12.10;99.90;;;;;;5025850;28;20064;-74
2022/05/27 04:07:22;;;;;;;4.55;0.82;;;12.10;99.90;;;;;;5043528;28;20622;-75
2022/05/27 04:09:47;;;;;;;2.55;1.17;;;12.00;99.90;;;;;;5025484;28;20025;-74
2022/05/27 04:12:13;;;;;;;17.30;3.13;;;12.00;99.90;;;;;;5021964;28;20041;-75
2022/05/27 04:14:39;;;;;;;8.57;1.95;;;12.00;99.90;;;;;;5023463;28;20041;-75
2022/05/27 04:17:47;;;;;;;3.13;1.10;;;12.00;99.90;;;;;;5022146;28;20033;-74
2022/05/27 04:19:54;;;;;;;4.25;1.23;;;11.90;99.90;;;;;;5013831;28;20049;-76
2022/05/27 04:22:20;;;;;;;3.72;1.45;;;12.00;99.90;;;;;;5023383;28;20038;-73
2022/05/27 04:24:45;;;;;;;3.25;1.55;;;12.00;99.90;;;;;;5022349;28;20026;-74
2022/05/27 04:27:14;;;;;;;2.30;1.23;;;12.00;99.90;;;;;;5022502;28;20049;-76
2022/05/27 04:29:42;;;;;;;6.80;1.42;;;12.10;99.90;;;;;;5021928;28;20053;-75
2022/05/27 04:32:11;;;;;;;10.23;1.52;;;12.00;99.90;;;;;;5022924;28;20037;-76
2022/05/27 04:34:38;;;;;;;9.45;0.90;;;12.00;99.90;;;;;;5022650;28;20041;-73
2022/05/27 04:37:04;;;;;;;3.30;1.35;;;12.00;99.90;;;;;;5023241;28;20022;-75
2022/05/27 04:39:30;;;;;;;6.55;1.48;;;12.00;99.90;;;;;;5023241;28;20022;-74
2022/05/27 04:41:56;;;;;;;2.92;0.85;;;12.10;99.90;;;;;;5022239;28;20033;-73
2022/05/27 04:44:22;;;;;;;5.80;1.05;;;12.00;99.90;;;;;;5023034;28;20026;-76
2022/05/27 04:46:47;;;;;;;2.50;0.98;;;12.00;99.90;;;;;;5021833;28;20033;-74
2022/05/27 04:49:50;;;;;;;6.10;2.10;;;12.10;99.90;;;;;;5023099;28;20040;-76
2022/05/27 04:51:59;;;;;;;3.40;1.00;;;12.20;99.90;;;;;;5022579;28;20022;-74
2022/05/27 04:54:25;;;;;;;8.63;1.67;;;12.20;99.90;;;;;;5021040;28;20084;-72
2022/05/27 04:56:51;;;;;;;3.72;1.40;;;12.20;99.90;;;;;;5019831;28;20029;-76
2022/05/27 04:59:17;;;;;;;5.80;1.30;;;12.20;99.90;;;;;;5019556;28;20053;-71
2022/05/27 05:01:42;;;;;;;3.25;1.15;;;12.20;99.90;;;;;;5017983;28;20390;-74
2022/05/27 05:04:09;;;;;;;5.07;0.90;;;12.30;99.90;;;;;;5012033;28;20120;-72
2022/05/27 05:06:35;;;;;;;7.57;1.70;;;12.30;99.90;;;;;;5020828;28;20025;-75
2022/05/27 05:09:01;;;;;;;4.47;1.48;;;12.30;99.90;;;;;;5020751;28;20018;-73
2022/05/27 05:11:27;;;;;;;4.95;1.83;;;12.40;99.90;;;;;;5021378;28;20094;-76
2022/05/27 05:13:52;;;;;;;5.97;1.33;;;12.30;99.90;;;;;;5024609;28;20095;-75
2022/05/27 05:16:18;;;;;;;3.83;1.15;;;12.50;99.90;;;;;;5033367;28;20036;-76
2022/05/27 05:18:43;;;;;;;1.65;0.82;;;12.50;99.90;;;;;;5037322;28;20412;-75
2022/05/27 05:21:09;;;;;;;10.57;1.05;;;12.50;99.90;;;;;;5024374;28;20022;-76
2022/05/27 05:23:34;;;;;;;2.78;1.58;;;12.60;99.90;;;;;;5023260;28;20030;-73
2022/05/27 05:26:00;;;;;;;10.93;0.98;;;12.70;99.90;;;;;;5041766;28;20025;-72
2022/05/27 05:28:26;;;;;;;4.22;0.85;;;12.70;99.90;;;;;;5024609;28;20022;-74
2022/05/27 05:30:55;;;;;;;4.43;1.50;;;12.60;99.90;;;;;;5042238;28;20114;-73
2022/05/27 05:33:21;;;;;;;2.53;1.00;;;12.70;99.90;;;;;;5040865;28;20084;-73
2022/05/27 05:35:47;;;;;;;2.72;1.33;;;12.70;99.90;;;;;;5042148;28;20426;-72
2022/05/27 05:38:13;;;;;;;5.38;1.40;;;12.70;99.90;;;;;;5041591;28;20029;-75
2022/05/27 05:40:39;;;;;;;4.85;0.77;;;12.70;99.90;;;;;;5040113;28;20030;-73
2022/05/27 05:43:07;;;;;;;3.42;0.90;;;12.70;99.90;;;;;;5042217;28;20033;-75
2022/05/27 05:45:32;;;;;;;8.02;0.85;;;12.70;99.90;;;;;;5043098;28;20037;-74
2022/05/27 05:47:58;;;;;;;2.47;1.27;;;12.70;99.90;;;;;;5041289;28;20417;-73
2022/05/27 05:50:24;;;;;;;0.85;0.50;;;12.70;99.90;;;;;;5045263;28;20063;-74
2022/05/27 05:52:50;;;;;;;3.42;1.08;;;12.80;99.90;;;;;;5044230;28;20042;-74
2022/05/27 05:55:17;;;;;;;5.75;1.58;;;12.80;99.90;;;;;;5045126;28;20056;-74
2022/05/27 05:57:46;;;;;;;12.68;1.05;;;12.80;99.90;;;;;;5027016;28;20036;-76
2022/05/27 06:00:16;;;;;;;1.35;0.98;;;12.80;99.90;;;;;;5027865;28;20025;-74
2022/05/27 06:02:41;;;;;;;2.95;0.95;;;12.80;99.90;;;;;;5045348;28;20018;-76
2022/05/27 06:05:09;;;;;;;6.80;1.30;;;12.80;99.90;;;;;;5045871;28;20025;-75
2022/05/27 06:07:36;;;;;;;7.20;1.83;;;12.90;99.90;;;;;;5042150;28;20462;-77
2022/05/27 06:10:04;;;;;;;5.95;1.67;;;12.90;99.90;;;;;;5044449;28;20017;-74
2022/05/27 06:12:34;;;;;;;2.97;1.33;;;12.90;99.90;;;;;;5042289;28;20468;-77
2022/05/27 06:15:00;;;;;;;11.23;2.17;;;12.90;99.90;;;;;;5045386;28;20029;-72
2022/05/27 06:17:27;;;;;;;10.98;1.83;;;13.00;99.90;;;;;;5045155;28;20037;-73
2022/05/27 06:19:53;;;;;;;10.38;2.13;;;13.00;99.90;;;;;;5027737;28;20056;-74
2022/05/27 06:22:19;;;;;;;4.93;1.02;;;13.10;99.90;;;;;;5043620;28;20060;-76
2022/05/27 06:24:45;;;;;;;7.85;1.60;;;13.20;99.90;;;;;;5045070;28;20033;-74
2022/05/27 06:27:11;;;;;;;11.38;2.08;;;13.30;99.90;;;;;;5043297;28;20025;-73
2022/05/27 06:35:07;;;;;;;3.63;1.45;;;13.40;99.90;;;;;;5045241;28;20044;-73
2022/05/27 06:37:34;;;;;;;3.42;1.15;;;13.40;99.90;;;;;;5044822;28;20025;-72
2022/05/27 06:39:59;;;;;;;9.05;1.30;;;13.40;99.90;;;;;;5044815;28;20097;-70
2022/05/27 06:42:25;;;;;;;3.47;0.95;;;13.30;99.90;;;;;;5043462;28;20041;-71
2022/05/27 06:44:51;;;;;;;1.38;0.85;;;13.40;99.90;;;;;;5042768;28;20088;-73
2022/05/27 06:47:16;;;;;;;6.60;1.50;;;13.40;99.90;;;;;;5027052;28;20017;-71
2022/05/27 06:49:45;;;;;;;5.35;1.00;;;13.40;99.90;;;;;;5043963;28;20421;-73
2022/05/27 06:52:13;;;;;;;13.13;1.77;;;13.50;99.90;;;;;;5026607;28;20390;-71
2022/05/27 06:54:39;;;;;;;7.70;1.83;;;13.50;99.90;;;;;;5026428;28;20105;-74
2022/05/27 06:57:06;;;;;;;4.45;1.88;;;13.50;99.90;;;;;;5039800;28;20025;-70
2022/05/27 06:59:33;;;;;;;2.33;0.90;;;13.50;99.90;;;;;;5043116;28;20025;-74
2022/05/27 07:02:00;;;;;;;6.35;1.50;;;13.50;99.90;;;;;;5043133;28;20393;-73
2022/05/27 07:04:26;;;;;;;1.58;0.82;;;13.50;99.90;;;;;;5044807;28;20029;-72
2022/05/27 07:06:52;;;;;;;11.57;1.27;;;13.50;99.90;;;;;;5042467;28;20943;-75
2022/05/27 07:09:21;;;;;;;3.47;1.35;;;13.60;99.90;;;;;;5044332;28;20025;-73
2022/05/27 07:11:48;;;;;;;3.75;1.08;;;13.70;99.90;;;;;;5025936;28;20117;-74
2022/05/27 07:14:14;;;;;;;9.63;2.22;;;13.70;99.90;;;;;;5043727;28;20037;-72
2022/05/27 07:16:42;;;;;;;10.43;2.03;;;13.80;99.90;;;;;;5044095;28;20022;-75
2022/05/27 07:19:07;;;;;;;2.20;1.10;;;13.90;99.90;;;;;;5042737;28;20026;-74
2022/05/27 07:21:41;;;;;;;7.25;1.58;;;14.00;99.90;;;;;;5042527;28;20037;-73
2022/05/27 07:24:09;;;;;;;6.47;1.48;;;14.10;99.90;;;;;;5043426;28;20030;-73
2022/05/27 07:26:36;;;;;;;8.75;1.85;;;14.10;99.90;;;;;;5043716;28;20025;-73
2022/05/27 07:29:02;;;;;;;2.88;1.00;;;14.00;99.90;;;;;;5040962;28;20029;-73
2022/05/27 07:31:29;;;;;;;2.95;1.50;;;14.10;99.90;;;;;;5024905;28;20025;-73
2022/05/27 07:33:56;;;;;;;4.60;1.30;;;14.20;99.90;;;;;;5042786;28;20048;-74
2022/05/27 07:36:22;;;;;;;8.07;1.85;;;14.30;99.90;;;;;;5025700;28;20021;-70
2022/05/27 07:38:51;;;;;;;3.08;1.52;;;14.30;99.90;;;;;;5044202;28;20103;-70
2022/05/27 07:41:17;;;;;;;6.95;1.90;;;14.40;99.90;;;;;;5042600;28;20025;-72
2022/05/27 07:43:43;;;;;;;5.40;1.27;;;14.40;99.90;;;;;;5041122;28;20022;-70
2022/05/27 07:46:09;;;;;;;13.05;2.22;;;14.60;99.90;;;;;;5043650;28;20048;-74
2022/05/27 07:48:34;;;;;;;6.43;2.05;;;14.60;99.90;;;;;;5042536;28;20030;-75
2022/05/27 07:51:01;;;;;;;13.25;1.85;;;14.50;99.90;;;;;;5040124;28;20073;-71
2022/05/27 07:53:27;;;;;;;4.40;1.20;;;14.40;99.90;;;;;;5041461;28;20029;-73
2022/05/27 07:55:52;;;;;;;5.05;1.58;;;14.30;99.90;;;;;;5025115;28;20028;-76
2022/05/27 07:58:18;;;;;;;10.05;1.85;;;14.10;99.90;;;;;;5042052;28;20029;-73
2022/05/27 08:00:45;;;;;;;21.52;2.03;;;14.30;99.90;;;;;;5024281;28;20373;-73
2022/05/27 08:03:11;;;;;;;4.15;2.08;;;14.40;99.90;;;;;;5042523;28;20072;-72
2022/05/27 08:05:39;;;;;;;4.32;1.38;;;14.60;99.90;;;;;;5043497;28;20025;-76
2022/05/27 08:08:06;;;;;;;1.98;1.00;;;14.70;99.90;;;;;;5042771;28;20025;-74
2022/05/27 08:10:40;;;;;;;8.43;1.88;;;14.70;99.90;;;;;;5025403;28;20037;-72
2022/05/27 08:13:09;;;;;;;8.20;2.00;;;14.60;99.90;;;;;;5022636;28;20131;-76
2022/05/27 08:15:35;;;;;;;7.55;1.85;;;14.50;99.90;;;;;;5042674;28;20037;-73
2022/05/27 08:18:01;;;;;;;7.28;2.00;;;14.50;99.90;;;;;;5043001;28;20025;-71
2022/05/27 08:20:30;;;;;;;9.52;1.92;;;14.50;99.90;;;;;;5040703;28;20421;-73
2022/05/27 08:22:57;;;;;;;2.83;1.33;;;14.50;99.90;;;;;;5041097;28;20031;-74
2022/05/27 08:25:24;;;;;;;6.03;1.80;;;14.40;99.90;;;;;;5023047;28;20021;-71
2022/05/27 08:27:50;;;;;;;5.72;1.10;;;14.40;99.90;;;;;;5041641;28;20028;-74
2022/05/27 08:30:19;;;;;;;4.82;2.13;;;14.60;99.90;;;;;;5042968;28;20025;-71
2022/05/27 08:32:49;;;;;;;7.50;1.58;;;14.70;99.90;;;;;;5039945;28;20085;-74
2022/05/27 08:38:09;;;;;;;9.38;2.42;;;14.90;99.90;;;;;;5039251;28;20423;-70
2022/05/27 08:41:07;;;;;;;7.25;1.73;;;14.80;99.90;;;;;;5032482;28;20029;-75
2022/05/27 08:43:58;;;;;;;10.18;1.83;;;14.70;99.90;;;;;;5037953;28;20025;-74
2022/05/27 08:46:46;;;;;;;8.52;1.38;;;14.50;99.90;;;;;;5042684;28;20021;-75
2022/05/27 08:49:21;;;;;;;3.10;1.67;;;14.60;99.90;;;;;;5041581;28;20025;-72
2022/05/27 08:52:04;;;;;;;8.52;1.92;;;14.70;99.90;;;;;;5041312;28;20091;-72
2022/05/27 08:54:42;;;;;;;10.93;2.15;;;14.70;99.90;;;;;;5041361;28;20033;-74
2022/05/27 09:00:17;;;;;;;4.70;1.98;;;14.70;99.90;;;;;;5039697;28;20076;-76
2022/05/27 09:03:04;;;;;;;9.60;1.63;;;14.60;99.90;;;;;;5039013;28;20041;-76
2022/05/27 09:05:38;;;;;;;5.65;1.35;;;14.40;99.90;;;;;;5014315;28;20026;-71
2022/05/27 09:08:13;;;;;;;;;;;14.30;99.90;;;;;;5018932;28;20052;-72
2022/05/27 09:10:58;;;;;;;11.90;2.38;;;14.40;99.90;;;;;;5038401;28;20385;-72
2022/05/27 09:13:39;;;;;;;5.10;1.40;;;14.50;99.90;;;;;;5038850;28;20059;-74
2022/05/27 09:16:17;;;;;;;8.63;1.73;;;14.70;99.90;;;;;;5024120;28;20033;-74
2022/05/27 09:18:51;;;;;;;3.35;1.23;;;14.90;99.90;;;;;;5039499;28;20056;-75
2022/05/27 09:21:41;;;;;;;1.75;0.93;;;15.10;99.90;;;;;;5042061;28;20033;-73
2022/05/27 09:24:16;;;;;;;2.50;1.40;;;15.30;99.90;;;;;;5042327;28;20460;-77
2022/05/27 09:27:16;;;;;;;2.63;1.27;;;15.40;99.90;;;;;;5040078;28;20029;-74
2022/05/27 09:29:51;;;;;;;10.20;1.55;;;15.60;99.90;;;;;;5040029;28;20038;-73
2022/05/27 09:32:37;;;;;;;4.82;1.73;;;15.80;99.90;;;;;;5041340;28;20021;-74
2022/05/27 09:35:10;;;;;;;11.10;1.40;;;15.80;99.90;;;;;;5041820;28;20041;-74
2022/05/27 09:37:39;;;;;;;1.85;0.88;;;15.80;99.90;;;;;;5041892;28;20539;-78
2022/05/27 09:40:30;;;;;;;2.78;1.50;;;16.00;99.90;;;;;;5022858;28;20021;-74
2022/05/27 09:42:58;;;;;;;4.15;1.45;;;15.80;99.90;;;;;;5040891;28;20041;-76
2022/05/27 09:45:24;;;;;;;3.58;1.08;;;15.80;99.90;;;;;;5041639;28;20120;-72
2022/05/27 09:47:57;;;;;;;8.65;1.65;;;15.70;99.90;;;;;;5041817;28;20025;-75
2022/05/27 09:50:41;;;;;;;10.55;1.65;;;15.90;99.90;;;;;;5040498;28;20116;-75
2022/05/27 09:53:34;;;;;;;2.30;1.48;;;16.00;99.90;;;;;;5024024;28;20033;-77
2022/05/27 09:56:05;;;;;;;9.07;1.55;;;16.10;99.90;;;;;;5041521;28;20056;-73
2022/05/27 09:58:36;;;;;;;9.82;2.25;;;16.00;99.90;;;;;;5041378;28;20048;-75
2022/05/27 10:01:18;;;;;;;6.38;1.08;;;16.00;99.90;;;;;;5041944;28;20020;-70
2022/05/27 10:03:45;;;;;;;15.52;2.15;;;16.00;99.90;;;;;;5041418;28;20032;-71
2022/05/27 10:06:19;;;;;;;3.85;1.17;;;16.10;99.90;;;;;;5041553;28;20052;-77
2022/05/27 10:08:56;;;;;;;9.63;1.55;;;16.10;99.90;;;;;;5041182;28;20021;-71
2022/05/27 10:11:25;;;;;;;6.53;1.05;;;16.10;99.90;;;;;;5023032;28;20033;-77
2022/05/27 10:14:06;;;;;;;4.57;1.58;;;16.10;99.90;;;;;;5023656;28;20057;-71
2022/05/27 10:16:36;;;;;;;3.95;0.85;;;16.10;99.90;;;;;;5024095;28;20052;-73
2022/05/27 10:19:15;;;;;;;4.75;1.08;;;16.00;99.90;;;;;;5023511;28;20043;-73
2022/05/27 10:22:29;;;;;;;3.45;1.33;;;15.80;99.90;;;;;;5040990;28;20029;-75
2022/05/27 10:25:01;;;;;;;4.22;1.40;;;15.70;99.90;;;;;;5024938;28;20109;-72
2022/05/27 10:27:58;;;;;;;3.38;1.35;;;15.60;99.90;;;;;;5040848;28;20052;-72
2022/05/27 10:30:26;;;;;;;10.80;2.08;;;15.50;99.90;;;;;;5023965;28;20102;-73
2022/05/27 10:32:52;;;;;;;3.78;1.80;;;15.20;99.90;;;;;;5043832;28;20029;-76
2022/05/27 10:35:21;;;;;;;5.70;1.70;;;15.30;99.90;;;;;;5045249;28;20026;-73
2022/05/27 10:38:10;;;;;;;8.25;1.65;;;15.70;99.90;;;;;;5044211;28;20037;-73
2022/05/27 10:40:59;;;;;;;3.58;1.45;;;15.70;99.90;;;;;;5043105;28;20051;-72
2022/05/27 10:43:46;;;;;;;4.00;1.27;;;15.70;99.90;;;;;;5045022;28;20485;-74
2022/05/27 10:46:15;;;;;;;5.30;0.80;;;15.50;99.90;;;;;;5044583;28;20045;-75
2022/05/27 10:49:14;;;;;;;0.70;0.60;;;15.10;99.90;;;;;;5044608;28;20126;-74
2022/05/27 10:52:03;;;;;;;3.47;1.33;;;14.90;99.90;;;;;;5044288;28;20025;-74
2022/05/27 10:54:48;;;;;;;3.45;1.23;;;14.80;99.90;;;;;;5044841;28;20026;-75
2022/05/27 11:03:32;;;;;;;6.43;1.60;;;15.70;99.90;;;;;;5044828;28;20024;-73
2022/05/27 11:06:10;;;;;;;4.97;1.52;;;15.70;99.90;;;;;;5026642;28;20717;-72
2022/05/27 11:09:02;;;;;;;5.28;1.40;;;15.40;99.90;;;;;;5044659;28;20022;-76
2022/05/27 11:11:41;;;;;;;5.70;1.63;;;15.00;99.90;;;;;;5043960;28;20025;-75
2022/05/27 11:17:27;;;;;;;10.50;2.42;;;14.70;99.90;;;;;;5044792;28;20092;-74
2022/05/27 11:20:24;;;;;;;15.02;2.03;;;14.90;99.90;;;;;;5044351;28;20428;-70
2022/05/27 11:22:49;;;;;;;6.38;1.20;;;15.10;99.90;;;;;;5044344;28;20089;-73
2022/05/27 11:25:27;;;;;;;11.75;1.50;;;15.50;99.90;;;;;;5044332;28;20049;-73
2022/05/27 11:28:02;;;;;;;4.78;1.60;;;15.80;99.90;;;;;;5044026;28;20824;-73
2022/05/27 11:30:35;;;;;;;10.18;1.75;;;16.10;99.90;;;;;;5044471;28;20396;-75
2022/05/27 11:33:06;;;;;;;5.93;1.70;;;16.30;99.90;;;;;;5043718;28;20076;-71
2022/05/27 11:36:09;;;;;;;4.03;1.13;;;16.20;99.90;;;;;;5044002;28;20026;-70
2022/05/27 11:38:44;;;;;;;3.35;1.35;;;16.10;99.90;;;;;;5044307;28;20024;-69
2022/05/27 11:41:15;;;;;;;2.22;0.98;;;16.50;99.90;;;;;;5043289;28;20049;-72
2022/05/27 11:44:05;;;;;;;4.78;1.75;;;16.60;99.90;;;;;;5041842;28;20033;-72
2022/05/27 11:46:55;;;;;;;7.57;1.50;;;16.60;99.90;;;;;;5043454;28;20045;-73
2022/05/27 11:49:20;;;;;;;4.20;1.10;;;16.40;99.90;;;;;;5043787;28;20038;-72
2022/05/27 11:51:49;;;;;;;2.20;1.13;;;16.80;99.90;;;;;;5043810;28;20022;-71
2022/05/27 11:54:28;;;;;;;2.72;1.13;;;17.20;99.90;;;;;;5043444;28;20029;-72
2022/05/27 11:57:08;;;;;;;5.05;1.65;;;17.10;99.90;;;;;;5025502;28;20025;-69
2022/05/27 11:59:46;;;;;;;4.88;1.60;;;16.50;99.90;;;;;;5043450;28;20033;-74
2022/05/27 12:02:41;;;;;;;4.65;1.20;;;16.20;99.90;;;;;;5024523;28;20108;-71
2022/05/27 12:05:16;;;;;;;4.97;1.58;;;16.50;99.90;;;;;;5041562;28;20025;-73
2022/05/27 12:07:57;;;;;;;4.65;1.02;;;16.70;99.90;;;;;;5043232;28;20025;-76
2022/05/27 12:10:30;;;;;;;5.28;1.55;;;16.60;99.90;;;;;;5022638;28;20029;-73
2022/05/27 12:13:15;;;;;;;7.65;1.40;;;16.40;99.90;;;;;;5041811;28;20049;-72
2022/05/27 12:15:54;;;;;;;2.15;0.85;;;16.10;99.90;;;;;;5042479;28;20029;-77
2022/05/27 12:18:27;;;;;;;3.30;1.00;;;16.10;99.90;;;;;;5042279;28;20504;-73
2022/05/27 12:20:53;;;;;;;5.38;1.05;;;16.60;99.90;;;;;;5039346;28;20025;-77
2022/05/27 12:23:25;;;;;;;2.13;1.13;;;16.80;99.90;;;;;;5040657;28;20034;-72
2022/05/27 12:25:55;;;;;;;5.38;1.48;;;16.70;99.90;;;;;;5039046;28;20017;-73
2022/05/27 12:28:27;;;;;;;2.63;1.02;;;16.70;99.90;;;;;;5023330;28;20116;-75
2022/05/27 12:30:54;;;;;;;15.00;1.75;;;16.70;99.90;;;;;;5041650;28;20436;-73
2022/05/27 12:33:24;;;;;;;4.22;1.42;;;16.60;99.90;;;;;;5041524;28;20033;-76
2022/05/27 12:36:25;;;;;;;7.03;1.17;;;16.90;99.90;;;;;;5042450;28;20017;-72
2022/05/27 12:38:53;;;;;;;7.78;1.30;;;17.30;99.90;;;;;;5040808;28;20059;-71
2022/05/27 12:41:40;;;;;;;2.33;1.17;;;17.40;99.90;;;;;;5023775;28;20480;-73
2022/05/27 12:44:21;;;;;;;3.45;1.23;;;17.60;99.90;;;;;;5040499;28;20021;-74
2022/05/27 12:46:57;;;;;;;6.47;1.27;;;17.70;99.90;;;;;;5041962;28;20033;-75
2022/05/27 12:49:39;;;;;;;4.00;1.35;;;17.70;99.90;;;;;;5041245;28;20084;-73
2022/05/27 12:52:27;;;;;;;7.03;1.63;;;17.30;99.90;;;;;;5042317;28;20089;-75
2022/05/27 12:54:53;;;;;;;7.47;1.38;;;17.00;99.90;;;;;;5040557;28;20044;-74
2022/05/27 13:00:58;;;;;;;3.13;1.40;;;17.20;99.90;;;;;;5013582;28;20115;-76
2022/05/27 13:03:41;;;;;;;16.38;1.75;;;17.40;99.90;;;;;;5041430;28;20041;-71
2022/05/27 13:06:15;;;;;;;5.93;1.52;;;17.70;99.90;;;;;;5041556;28;20064;-72
2022/05/27 13:08:49;;;;;;;8.85;1.58;;;17.70;99.90;;;;;;5041584;28;20029;-76
2022/05/27 13:11:35;;;;;;;0.40;0.40;;;17.70;99.90;;;;;;5040682;28;20017;-72
2022/05/27 13:14:04;;;;;;;3.60;1.35;;;17.80;99.90;;;;;;5024444;28;20058;-75
2022/05/27 13:16:45;;;;;;;11.35;2.00;;;18.10;99.90;;;;;;5023697;28;20025;-72
2022/05/27 13:19:49;;;;;;;2.35;0.95;;;18.10;99.90;;;;;;5041074;28;20032;-74
2022/05/27 13:22:30;;;;;;;2.50;1.10;;;17.80;99.90;;;;;;5028151;28;20045;-76
2022/05/27 13:25:26;;;;;;;3.45;0.90;;;17.50;99.90;;;;;;5041777;28;20037;-77
2022/05/27 13:28:18;;;;;;;14.10;1.88;;;17.30;99.90;;;;;;5023602;28;20021;-71
2022/05/27 13:31:04;;;;;;;7.25;0.93;;;17.10;99.90;;;;;;5041039;28;20037;-71
2022/05/27 13:33:34;;;;;;;2.30;1.00;;;16.90;99.90;;;;;;5040370;28;20128;-72
2022/05/27 13:36:27;;;;;;;3.22;1.05;;;16.70;99.90;;;;;;5022568;28;20041;-72
2022/05/27 13:39:11;;;;;;;5.75;1.20;;;16.40;99.90;;;;;;5019045;28;20026;-71
2022/05/27 13:41:50;;;;;;;2.40;1.15;;;16.30;99.90;;;;;;5040988;28;20033;-72
2022/05/27 13:44:20;;;;;;;2.42;1.00;;;16.20;99.90;;;;;;5039562;28;20037;-71
2022/05/27 13:46:57;;;;;;;2.47;1.05;;;16.10;99.90;;;;;;5041956;28;20013;-72
2022/05/27 13:49:31;;;;;;;6.03;0.90;;;15.90;99.90;;;;;;5020868;28;20046;-72